createdAt,value
2018-09-09T00:01:34.100Z,9.43
2018-09-09T00:04:04.191Z,9.53
2018-09-09T00:06:34.263Z,9.80
2018-09-09T00:09:04.836Z,9.07
2018-09-09T00:11:34.911Z,9.13
2018-09-09T00:14:05.045Z,9.03
2018-09-09T00:16:35.100Z,9.03
2018-09-09T00:19:05.187Z,9.33
2018-09-09T00:21:35.277Z,8.80
2018-09-09T00:24:05.380Z,8.77
2018-09-09T00:26:35.527Z,9.03
2018-09-09T00:29:06.278Z,8.83
2018-09-09T00:31:37.215Z,8.40
2018-09-09T00:34:07.368Z,8.80
2018-09-09T00:36:37.441Z,9.20
2018-09-09T00:39:08.632Z,9.33
2018-09-09T00:41:38.727Z,8.63
2018-09-09T00:44:08.808Z,8.90
2018-09-09T00:46:39.164Z,8.77
2018-09-09T00:49:14.484Z,9.00
2018-09-09T00:51:49.664Z,9.40
2018-09-09T00:54:19.861Z,8.97
2018-09-09T00:56:49.936Z,8.97
2018-09-09T00:59:20.040Z,9.27
2018-09-09T01:01:50.176Z,9.43
2018-09-09T01:04:20.253Z,8.57
2018-09-09T01:06:50.351Z,8.90
2018-09-09T01:09:20.549Z,9.27
2018-09-09T01:11:50.626Z,9.90
2018-09-09T01:14:20.812Z,9.13
2018-09-09T01:16:50.875Z,8.57
2018-09-09T01:19:20.957Z,8.53
2018-09-09T01:21:51.024Z,9.37
2018-09-09T01:24:21.168Z,8.80
2018-09-09T01:26:51.316Z,9.00
2018-09-09T01:29:21.551Z,9.57
2018-09-09T01:31:51.680Z,8.80
2018-09-09T01:34:21.964Z,8.43
2018-09-09T01:36:52.052Z,9.23
2018-09-09T01:39:22.176Z,8.53
2018-09-09T01:41:52.257Z,9.20
2018-09-09T01:44:22.363Z,8.43
2018-09-09T01:46:52.441Z,9.10
2018-09-09T01:49:22.507Z,9.13
2018-09-09T01:51:52.623Z,8.97
2018-09-09T01:54:22.696Z,8.90
2018-09-09T01:56:52.761Z,8.47
2018-09-09T01:59:22.836Z,9.23
2018-09-09T02:01:52.912Z,8.73
2018-09-09T02:04:23.019Z,8.53
2018-09-09T02:06:53.157Z,8.90
2018-09-09T02:09:23.227Z,9.00
2018-09-09T02:11:53.297Z,8.87
2018-09-09T02:14:23.380Z,8.90
2018-09-09T02:16:53.476Z,8.80
2018-09-09T02:19:23.548Z,8.73
2018-09-09T02:21:53.654Z,9.10
2018-09-09T02:24:23.736Z,8.80
2018-09-09T02:26:53.815Z,9.23
2018-09-09T02:29:23.899Z,9.47
2018-09-09T02:31:53.996Z,9.67
2018-09-09T02:34:24.061Z,9.33
2018-09-09T02:36:54.131Z,9.70
2018-09-09T02:39:24.196Z,9.43
2018-09-09T02:41:54.296Z,9.33
2018-09-09T02:44:24.363Z,9.17
2018-09-09T02:46:54.512Z,8.57
2018-09-09T02:49:24.613Z,9.70
2018-09-09T02:51:54.699Z,9.37
2018-09-09T02:54:24.818Z,9.27
2018-09-09T02:56:54.884Z,9.00
2018-09-09T02:59:24.964Z,8.93
2018-09-09T03:01:55.036Z,8.37
2018-09-09T03:04:25.116Z,7.87
2018-09-09T03:06:55.184Z,8.50
2018-09-09T03:09:25.283Z,8.40
2018-09-09T03:11:55.382Z,8.57
2018-09-09T03:14:25.479Z,8.27
2018-09-09T03:16:55.552Z,8.83
2018-09-09T03:19:25.637Z,8.57
2018-09-09T03:21:55.703Z,8.20
2018-09-09T03:24:25.792Z,8.00
2018-09-09T03:26:55.873Z,8.60
2018-09-09T03:29:25.951Z,8.37
2018-09-09T03:31:56.049Z,8.10
2018-09-09T03:34:26.121Z,8.27
2018-09-09T03:36:56.211Z,8.40
2018-09-09T03:39:26.343Z,8.77
2018-09-09T03:41:56.414Z,8.43
2018-09-09T03:44:26.497Z,8.80
2018-09-09T03:46:56.672Z,8.23
2018-09-09T03:49:26.776Z,8.53
2018-09-09T03:51:56.888Z,8.03
2018-09-09T03:54:27.032Z,9.03
2018-09-09T03:56:57.104Z,8.50
2018-09-09T03:59:27.176Z,8.63
2018-09-09T04:01:57.360Z,8.80
2018-09-09T04:04:27.448Z,9.30
2018-09-09T04:06:57.548Z,9.00
2018-09-09T04:09:27.637Z,8.40
2018-09-09T04:11:57.709Z,9.20
2018-09-09T04:14:27.784Z,9.07
2018-09-09T04:16:57.873Z,9.23
2018-09-09T04:19:27.932Z,8.57
2018-09-09T04:21:58.060Z,8.57
2018-09-09T04:24:28.172Z,8.10
2018-09-09T04:26:58.228Z,8.43
2018-09-09T04:29:28.296Z,8.93
2018-09-09T04:31:58.396Z,9.07
2018-09-09T04:34:28.475Z,8.83
2018-09-09T04:36:58.573Z,8.30
2018-09-09T04:39:28.634Z,8.43
2018-09-09T04:41:58.708Z,9.13
2018-09-09T04:44:28.805Z,9.17
2018-09-09T04:46:58.876Z,8.63
2018-09-09T04:49:28.948Z,7.87
2018-09-09T04:51:59.013Z,8.83
2018-09-09T04:54:29.093Z,8.47
2018-09-09T04:56:59.153Z,9.20
2018-09-09T04:59:29.224Z,7.80
2018-09-09T05:01:59.305Z,8.00
2018-09-09T05:04:29.488Z,8.00
2018-09-09T05:06:59.608Z,8.40
2018-09-09T05:09:29.696Z,8.10
2018-09-09T05:11:59.762Z,7.47
2018-09-09T05:14:29.833Z,6.90
2018-09-09T05:16:59.919Z,6.83
2018-09-09T05:19:30.034Z,7.00
2018-09-09T05:22:00.262Z,6.73
2018-09-09T05:24:30.327Z,6.23
2018-09-09T05:27:00.396Z,7.10
2018-09-09T05:29:30.735Z,6.47
2018-09-09T05:32:00.824Z,6.83
2018-09-09T05:34:30.887Z,6.87
2018-09-09T05:37:00.963Z,6.90
2018-09-09T05:39:31.044Z,7.10
2018-09-09T05:42:01.133Z,7.00
2018-09-09T05:44:31.479Z,7.33
2018-09-09T05:47:01.548Z,6.67
2018-09-09T05:49:31.640Z,5.87
2018-09-09T05:52:01.696Z,6.13
2018-09-09T05:54:31.776Z,5.90
2018-09-09T05:57:01.867Z,5.90
2018-09-09T05:59:31.972Z,5.87
2018-09-09T06:02:02.497Z,7.77
2018-09-09T06:04:32.653Z,7.30
2018-09-09T06:07:02.713Z,7.13
2018-09-09T06:09:32.824Z,6.77
2018-09-09T06:12:02.917Z,6.70
2018-09-09T06:14:33.032Z,6.80
2018-09-09T06:17:03.100Z,7.40
2018-09-09T06:19:33.184Z,7.90
2018-09-09T06:22:03.296Z,6.90
2018-09-09T06:24:33.357Z,7.87
2018-09-09T06:27:03.439Z,7.97
2018-09-09T06:29:33.562Z,6.63
2018-09-09T06:32:03.652Z,7.77
2018-09-09T06:34:33.718Z,6.97
2018-09-09T06:37:03.828Z,7.60
2018-09-09T06:39:33.893Z,7.40
2018-09-09T06:42:03.975Z,6.90
2018-09-09T06:44:34.045Z,7.00
2018-09-09T06:47:04.123Z,7.47
2018-09-09T06:49:34.276Z,7.40
2018-09-09T06:52:04.369Z,7.50
2018-09-09T06:54:34.492Z,7.40
2018-09-09T06:57:04.624Z,7.20
2018-09-09T06:59:34.736Z,7.13
2018-09-09T07:02:04.823Z,7.40
2018-09-09T07:04:34.901Z,7.00
2018-09-09T07:07:05.084Z,7.27
2018-09-09T07:09:35.208Z,7.63
2018-09-09T07:12:05.306Z,7.60
2018-09-09T07:14:35.432Z,7.70
2018-09-09T07:17:05.527Z,7.30
2018-09-09T07:19:35.576Z,7.10
2018-09-09T07:22:05.644Z,6.93
2018-09-09T07:24:35.719Z,7.77
2018-09-09T07:27:05.848Z,6.73
2018-09-09T07:29:35.939Z,7.20
2018-09-09T07:32:06.036Z,7.23
2018-09-09T07:34:36.108Z,6.90
2018-09-09T07:37:06.229Z,6.67
2018-09-09T07:39:36.359Z,6.80
2018-09-09T07:42:06.074Z,6.83
2018-09-09T07:44:36.224Z,6.90
2018-09-09T07:47:06.628Z,6.67
2018-09-09T07:49:36.700Z,6.90
2018-09-09T07:52:06.896Z,7.07
2018-09-09T07:54:36.990Z,7.50
2018-09-09T07:57:07.048Z,7.47
2018-09-09T07:59:37.133Z,7.00
2018-09-09T08:02:07.520Z,7.20
2018-09-09T08:04:37.600Z,7.27
2018-09-09T08:07:07.696Z,7.53
2018-09-09T08:09:37.782Z,7.50
2018-09-09T08:12:07.890Z,7.50
2018-09-09T08:14:37.948Z,7.47
2018-09-09T08:17:08.048Z,6.80
2018-09-09T08:19:38.236Z,6.77
2018-09-09T08:22:08.328Z,6.53
2018-09-09T08:24:38.472Z,6.63
2018-09-09T08:27:08.557Z,6.83
2018-09-09T08:29:38.993Z,6.40
2018-09-09T08:32:09.060Z,6.53
2018-09-09T08:34:39.132Z,6.47
2018-09-09T08:37:09.284Z,6.30
2018-09-09T08:39:39.364Z,6.10
2018-09-09T08:42:09.444Z,5.90
2018-09-09T08:44:39.500Z,6.20
2018-09-09T08:47:09.656Z,5.50
2018-09-09T08:49:39.731Z,6.70
2018-09-09T08:52:09.828Z,6.10
2018-09-09T08:54:39.898Z,5.93
2018-09-09T08:57:09.984Z,6.10
2018-09-09T08:59:40.181Z,17.57
2018-09-09T09:02:10.300Z,21.90
2018-09-09T09:04:40.432Z,28.33
2018-09-09T09:07:10.684Z,18.60
2018-09-09T09:09:40.820Z,9.00
2018-09-09T09:12:11.772Z,13.43
2018-09-09T09:14:43.441Z,7.63
2018-09-09T09:17:13.535Z,34.97
2018-09-09T09:19:43.672Z,10.47
2018-09-09T09:22:13.753Z,13.10
2018-09-09T09:24:43.904Z,9.10
2018-09-09T09:27:14.036Z,8.10
2018-09-09T09:29:49.297Z,6.77
2018-09-09T09:32:22.684Z,6.40
2018-09-09T09:34:53.656Z,6.60
2018-09-09T09:37:24.625Z,6.30
2018-09-09T09:39:55.591Z,6.50
2018-09-09T09:42:26.012Z,6.80
2018-09-09T09:44:56.158Z,6.77
2018-09-09T09:47:26.192Z,7.40
2018-09-09T09:49:56.333Z,7.40
2018-09-09T09:52:26.444Z,7.00
2018-09-09T09:54:56.534Z,6.77
2018-09-09T09:57:26.596Z,6.60
2018-09-09T09:59:56.663Z,6.90
2018-09-09T10:02:26.785Z,6.60
2018-09-09T10:04:56.843Z,7.27
2018-09-09T10:07:26.964Z,6.93
2018-09-09T10:09:57.028Z,6.90
2018-09-09T10:12:27.205Z,7.40
2018-09-09T10:14:57.262Z,7.80
2018-09-09T10:17:27.322Z,6.90
2018-09-09T10:19:57.392Z,6.63
2018-09-09T10:22:27.500Z,7.20
2018-09-09T10:24:57.568Z,6.93
2018-09-09T10:27:27.636Z,6.80
2018-09-09T10:29:57.768Z,7.60
2018-09-09T10:32:28.062Z,7.07
2018-09-09T10:34:58.169Z,7.30
2018-09-09T10:37:28.248Z,7.60
2018-09-09T10:39:58.412Z,7.03
2018-09-09T10:42:28.476Z,7.40
2018-09-09T10:44:58.548Z,7.60
2018-09-09T10:47:28.648Z,7.60
2018-09-09T10:49:58.709Z,6.90
2018-09-09T10:52:28.797Z,7.07
2018-09-09T10:54:58.868Z,6.83
2018-09-09T10:57:28.947Z,6.80
2018-09-09T10:59:59.051Z,7.23
2018-09-09T11:02:29.159Z,7.73
2018-09-09T11:04:59.281Z,7.00
2018-09-09T11:07:29.356Z,6.67
2018-09-09T11:09:59.443Z,6.97
2018-09-09T11:12:30.964Z,6.90
2018-09-09T11:15:02.181Z,6.87
2018-09-09T11:17:32.303Z,6.90
2018-09-09T11:20:02.405Z,6.70
2018-09-09T11:22:32.524Z,6.70
2018-09-09T11:25:02.680Z,6.93
2018-09-09T11:27:32.772Z,7.10
2018-09-09T11:30:02.976Z,6.87
2018-09-09T11:32:32.951Z,7.10
2018-09-09T11:35:03.008Z,7.83
2018-09-09T11:37:33.101Z,7.60
2018-09-09T11:40:03.216Z,7.67
2018-09-09T11:42:33.328Z,7.90
2018-09-09T11:45:03.456Z,7.50
2018-09-09T11:47:33.560Z,7.70
2018-09-09T11:50:03.679Z,7.70
2018-09-09T11:52:33.808Z,7.80
2018-09-09T11:55:04.028Z,7.73
2018-09-09T11:57:34.221Z,8.13
2018-09-09T12:00:04.396Z,7.80
2018-09-09T12:02:34.485Z,8.33
2018-09-09T12:05:04.604Z,8.07
2018-09-09T12:07:34.715Z,7.83
2018-09-09T12:10:04.828Z,7.50
2018-09-09T12:12:34.897Z,8.03
2018-09-09T12:15:05.064Z,8.33
2018-09-09T12:17:35.132Z,7.90
2018-09-09T12:20:05.353Z,7.90
2018-09-09T12:22:35.420Z,7.73
2018-09-09T12:25:05.545Z,8.30
2018-09-09T12:27:35.604Z,7.73
2018-09-09T12:30:06.342Z,7.83
2018-09-09T12:32:36.492Z,8.23
2018-09-09T12:35:06.581Z,7.80
2018-09-09T12:37:36.702Z,7.90
2018-09-09T12:40:06.840Z,7.50
2018-09-09T12:42:36.919Z,8.23
2018-09-09T12:45:12.605Z,8.20
2018-09-09T12:47:47.832Z,8.00
2018-09-09T12:50:17.880Z,7.80
2018-09-09T12:52:47.968Z,8.03
2018-09-09T12:55:18.048Z,7.10
2018-09-09T12:57:48.124Z,7.10
2018-09-09T13:00:18.287Z,7.20
2018-09-09T13:02:48.368Z,8.07
2018-09-09T13:05:18.481Z,7.60
2018-09-09T13:07:48.544Z,7.50
2018-09-09T13:10:18.612Z,6.83
2018-09-09T13:12:53.784Z,7.10
2018-09-09T13:15:23.864Z,7.50
2018-09-09T13:17:53.955Z,7.33
2018-09-09T13:20:24.016Z,7.50
2018-09-09T13:22:54.122Z,7.20
2018-09-09T13:25:24.272Z,7.20
2018-09-09T13:27:54.357Z,7.23
2018-09-09T13:30:24.420Z,6.70
2018-09-09T13:32:54.504Z,6.90
2018-09-09T13:35:24.604Z,6.40
2018-09-09T13:37:54.728Z,7.40
2018-09-09T13:40:25.036Z,7.23
2018-09-09T13:42:55.365Z,7.17
2018-09-09T13:45:25.500Z,6.73
2018-09-09T13:47:55.634Z,6.67
2018-09-09T13:50:25.728Z,6.77
2018-09-09T13:52:55.856Z,6.70
2018-09-09T13:55:25.944Z,6.97
2018-09-09T13:57:56.024Z,6.90
2018-09-09T14:00:26.112Z,6.57
2018-09-09T14:02:56.168Z,7.07
2018-09-09T14:05:26.268Z,6.90
2018-09-09T14:07:56.321Z,6.97
2018-09-09T14:10:26.479Z,7.13
2018-09-09T14:12:56.588Z,6.90
2018-09-09T14:15:26.760Z,6.90
2018-09-09T14:17:56.840Z,7.00
2018-09-09T14:20:26.900Z,6.67
2018-09-09T14:22:57.008Z,6.90
2018-09-09T14:25:27.084Z,6.63
2018-09-09T14:27:57.226Z,6.77
2018-09-09T14:30:27.289Z,6.47
2018-09-09T14:32:57.356Z,6.10
2018-09-09T14:35:27.513Z,6.57
2018-09-09T14:37:57.585Z,6.60
2018-09-09T14:40:27.722Z,6.93
2018-09-09T14:42:57.812Z,6.93
2018-09-09T14:45:27.904Z,6.37
2018-09-09T14:47:57.960Z,6.73
2018-09-09T14:50:28.041Z,7.40
2018-09-09T14:52:58.163Z,7.40
2018-09-09T14:55:28.192Z,7.43
2018-09-09T14:57:58.309Z,7.30
2018-09-09T15:00:28.418Z,6.83
2018-09-09T15:02:58.588Z,11.53
2018-09-09T15:05:28.720Z,10.10
2018-09-09T15:07:58.819Z,9.03
2018-09-09T15:10:28.900Z,7.67
2018-09-09T15:12:58.979Z,8.27
2018-09-09T15:15:29.100Z,10.73
2018-09-09T15:17:59.182Z,10.57
2018-09-09T15:20:29.325Z,7.00
2018-09-09T15:22:59.456Z,7.80
2018-09-09T15:25:29.531Z,8.07
2018-09-09T15:27:59.644Z,8.00
2018-09-09T15:30:29.738Z,7.07
2018-09-09T15:32:59.934Z,7.50
2018-09-09T15:35:30.010Z,7.47
2018-09-09T15:38:00.520Z,7.27
2018-09-09T15:40:30.807Z,7.57
2018-09-09T15:43:00.892Z,7.03
2018-09-09T15:45:31.033Z,7.63
2018-09-09T15:48:01.085Z,7.50
2018-09-09T15:50:31.160Z,7.07
2018-09-09T15:53:01.290Z,7.57
2018-09-09T15:55:31.629Z,7.43
2018-09-09T15:58:01.728Z,7.37
2018-09-09T16:00:31.893Z,7.07
2018-09-09T16:03:01.916Z,7.60
2018-09-09T16:05:32.004Z,7.03
2018-09-09T16:08:02.083Z,7.27
2018-09-09T16:10:32.197Z,6.73
2018-09-09T16:13:02.272Z,7.07
2018-09-09T16:15:32.373Z,6.73
2018-09-09T16:18:02.475Z,7.20
2018-09-09T16:20:32.564Z,7.00
2018-09-09T16:23:02.700Z,7.10
2018-09-09T16:25:32.868Z,6.93
2018-09-09T16:28:02.976Z,7.07
2018-09-09T16:30:33.065Z,6.77
2018-09-09T16:33:03.148Z,7.53
2018-09-09T16:35:33.288Z,7.07
2018-09-09T16:38:03.430Z,7.20
2018-09-09T16:40:33.797Z,7.40
2018-09-09T16:43:03.908Z,7.37
2018-09-09T16:45:33.960Z,7.13
2018-09-09T16:48:04.140Z,7.40
2018-09-09T16:50:34.229Z,7.33
2018-09-09T16:53:04.320Z,7.83
2018-09-09T16:55:34.440Z,7.90
2018-09-09T16:58:04.564Z,8.53
2018-09-09T17:00:34.701Z,8.70
2018-09-09T17:03:04.800Z,8.67
2018-09-09T17:05:34.907Z,8.50
2018-09-09T17:08:05.237Z,8.80
2018-09-09T17:10:35.324Z,8.30
2018-09-09T17:13:05.456Z,8.57
2018-09-09T17:15:35.535Z,9.27
2018-09-09T17:18:05.632Z,9.03
2018-09-09T17:20:35.728Z,9.00
2018-09-09T17:23:05.840Z,9.27
2018-09-09T17:25:35.929Z,9.73
2018-09-09T17:28:06.020Z,9.27
2018-09-09T17:30:36.088Z,31.03
2018-09-09T17:33:06.310Z,24.73
2018-09-09T17:35:36.392Z,13.07
2018-09-09T17:38:06.529Z,10.30
2018-09-09T17:40:36.604Z,10.53
2018-09-09T17:43:06.745Z,10.13
2018-09-09T17:45:36.811Z,12.70
2018-09-09T17:48:06.940Z,10.37
2018-09-09T17:50:37.031Z,10.30
2018-09-09T17:53:07.189Z,12.77
2018-09-09T17:55:37.291Z,10.17
2018-09-09T17:58:07.392Z,29.83
2018-09-09T18:00:37.504Z,70.47
2018-09-09T18:03:07.596Z,67.47
2018-09-09T18:05:37.669Z,34.27
2018-09-09T18:08:07.749Z,36.37
2018-09-09T18:10:37.957Z,29.97
2018-09-09T18:13:08.505Z,15.87
2018-09-09T18:15:38.584Z,16.57
2018-09-09T18:18:08.748Z,16.47
2018-09-09T18:20:38.846Z,21.57
2018-09-09T18:23:08.932Z,20.37
2018-09-09T18:25:39.033Z,74.63
2018-09-09T18:28:09.148Z,61.73
2018-09-09T18:30:39.350Z,70.13
2018-09-09T18:33:09.449Z,16.00
2018-09-09T18:35:39.564Z,20.47
2018-09-09T18:38:09.658Z,15.80
2018-09-09T18:40:39.808Z,19.80
2018-09-09T18:43:09.943Z,13.93
2018-09-09T18:45:40.132Z,15.83
2018-09-09T18:48:10.344Z,17.10
2018-09-09T18:50:40.441Z,27.30
2018-09-09T18:53:10.548Z,20.93
2018-09-09T18:55:40.636Z,19.07
2018-09-09T18:58:10.754Z,17.37
2018-09-09T19:00:40.876Z,18.83
2018-09-09T19:03:10.977Z,18.27
2018-09-09T19:05:41.060Z,16.63
2018-09-09T19:08:11.156Z,13.43
2018-09-09T19:10:41.264Z,14.53
2018-09-09T19:13:11.349Z,12.63
2018-09-09T19:15:41.493Z,14.80
2018-09-09T19:18:11.576Z,12.73
2018-09-09T19:20:41.676Z,12.23
2018-09-09T19:23:11.760Z,13.87
2018-09-09T19:25:42.172Z,12.43
2018-09-09T19:28:12.279Z,10.83
2018-09-09T19:30:42.377Z,11.60
2018-09-09T19:33:12.491Z,12.00
2018-09-09T19:35:42.572Z,11.23
2018-09-09T19:38:12.723Z,11.00
2018-09-09T19:40:42.844Z,55.50
2018-09-09T19:43:12.933Z,62.80
2018-09-09T19:45:43.016Z,18.27
2018-09-09T19:48:13.128Z,23.23
2018-09-09T19:50:43.224Z,25.00
2018-09-09T19:53:13.356Z,22.57
2018-09-09T19:55:43.496Z,79.37
2018-09-09T19:58:13.651Z,28.67
2018-09-09T20:00:43.753Z,13.03
2018-09-09T20:03:13.913Z,16.03
2018-09-09T20:05:44.012Z,21.53
2018-09-09T20:08:14.101Z,17.53
2018-09-09T20:10:44.192Z,18.30
2018-09-09T20:13:14.297Z,17.97
2018-09-09T20:15:44.579Z,17.07
2018-09-09T20:18:14.771Z,14.00
2018-09-09T20:20:44.878Z,14.53
2018-09-09T20:23:14.944Z,14.60
2018-09-09T20:25:45.123Z,13.77
2018-09-09T20:28:15.144Z,12.87
2018-09-09T20:30:45.244Z,14.10
2018-09-09T20:33:15.332Z,12.93
2018-09-09T20:35:45.404Z,12.13
2018-09-09T20:38:15.512Z,13.40
2018-09-09T20:40:45.593Z,12.93
2018-09-09T20:43:15.717Z,13.07
2018-09-09T20:45:45.804Z,11.57
2018-09-09T20:48:16.028Z,12.10
2018-09-09T20:50:46.112Z,12.10
2018-09-09T20:53:16.201Z,12.13
2018-09-09T20:55:46.292Z,11.60
2018-09-09T20:58:16.397Z,11.97
2018-09-09T21:00:46.508Z,11.40
2018-09-09T21:03:16.613Z,11.43
2018-09-09T21:05:46.701Z,11.97
2018-09-09T21:08:17.144Z,11.60
2018-09-09T21:10:47.242Z,12.03
2018-09-09T21:13:17.322Z,12.00
2018-09-09T21:15:47.429Z,11.23
2018-09-09T21:18:17.521Z,11.50
2018-09-09T21:20:47.609Z,11.90
2018-09-09T21:23:17.696Z,32.07
2018-09-09T21:25:47.772Z,29.10
2018-09-09T21:28:17.868Z,17.73
2018-09-09T21:30:47.988Z,19.47
2018-09-09T21:33:18.084Z,16.63
2018-09-09T21:35:48.215Z,20.30
2018-09-09T21:38:18.284Z,17.27
2018-09-09T21:40:48.401Z,14.77
2018-09-09T21:43:19.027Z,17.00
2018-09-09T21:45:49.112Z,14.07
2018-09-09T21:48:19.240Z,13.07
2018-09-09T21:50:49.803Z,12.63
2018-09-09T21:53:19.955Z,12.90
2018-09-09T21:55:50.057Z,12.83
2018-09-09T21:58:20.480Z,12.10
2018-09-09T22:00:55.824Z,12.13
2018-09-09T22:03:25.944Z,12.07
2018-09-09T22:05:56.764Z,11.47
2018-09-09T22:08:27.140Z,12.50
2018-09-09T22:10:57.317Z,11.10
2018-09-09T22:13:27.460Z,11.80
2018-09-09T22:15:57.569Z,11.70
2018-09-09T22:18:27.643Z,12.03
2018-09-09T22:20:57.771Z,11.73
2018-09-09T22:23:27.911Z,11.93
2018-09-09T22:25:57.971Z,11.37
2018-09-09T22:28:28.057Z,12.50
2018-09-09T22:30:58.146Z,11.53
2018-09-09T22:33:28.270Z,41.40
2018-09-09T22:35:58.452Z,30.40
2018-09-09T22:38:28.581Z,22.80
2018-09-09T22:40:58.671Z,18.37
2018-09-09T22:43:28.774Z,21.57
2018-09-09T22:45:59.424Z,20.43
2018-09-09T22:48:29.724Z,12.60
2018-09-09T22:50:59.828Z,15.50
2018-09-09T22:53:29.946Z,15.10
2018-09-09T22:56:00.032Z,12.97
2018-09-09T22:58:30.240Z,14.40
2018-09-09T23:01:00.323Z,13.33
2018-09-09T23:03:30.441Z,13.20
2018-09-09T23:06:00.526Z,12.40
2018-09-09T23:08:30.621Z,12.30
2018-09-09T23:11:00.725Z,11.13
2018-09-09T23:13:30.852Z,11.47
2018-09-09T23:16:07.740Z,33.30
2018-09-09T23:18:37.853Z,40.80
2018-09-09T23:21:07.956Z,17.33
2018-09-09T23:23:38.048Z,12.10
2018-09-09T23:26:08.202Z,14.80
2018-09-09T23:28:38.277Z,14.80
2018-09-09T23:31:08.360Z,13.87
2018-09-09T23:33:38.541Z,11.87
2018-09-09T23:36:08.632Z,13.07
2018-09-09T23:38:38.720Z,12.70
2018-09-09T23:41:08.868Z,12.20
2018-09-09T23:43:38.989Z,11.97
2018-09-09T23:46:09.076Z,12.30
2018-09-09T23:48:39.172Z,12.20
2018-09-09T23:51:09.281Z,12.67
2018-09-09T23:53:39.369Z,11.87
2018-09-09T23:56:09.464Z,11.80
2018-09-09T23:58:39.533Z,12.60
